KCMX

Houghton County Memorial Airport

Hancock, Michigan, USA
METAR KCMX 230053Z AUTO 31014G20KT 10SM -RA BKN029 BKN034 OVC042 06/03 A2995 RMK AO2 SLP153 P0004 T00610033
Observed Flight Rules
Oct-23 @ 00:53 UTC (8 minutes ago) Marginal Visual Flight Rules
Wind Visibility Clouds Conditions
310° at 14 knots
 Gusting to 20 knots
10 miles
  • Broken at 2,900' AGL
  • Broken at 3,400' AGL
  • Overcast at 4,200' AGL
  • Light Rain
Temperatures Readings Precipitation
Current 6°C / 43°F
Dewpoint 3°C / 37°F
Humidity 81%
Altimeter 29.95" Hg
Pressure 1015.3 hPa
Elevation 326
Current Rain 0.04
METAR KCMX 230053Z AUTO 31014G20KT 10SM -RA BKN029 BKN034 OVC042 06/03 A2995 RMK AO2 SLP153 P0004 T00610033
Observed Flight Rules
Oct-23 @ 00:53 UTC
(8 minutes ago)
MVFR
Wind Visibility
310° at 14 knots
 Gusting to 20 knots
10 miles
Clouds
  • Broken at 2,900' AGL
  • Broken at 3,400' AGL
  • Overcast at 4,200' AGL
Conditions
  • Light Rain
Temperature Dewpoint
6°C / 43°F 3°C / 37°F
Humidity Altimeter Pressure
81% 29.95" Hg 1015.3 hPa
Current Rain
0.04